Time;durP1;ratioP1;P1;durP2;ratioP2;P2;SDS_P1;SDS_P2;PMS_P1;PMS_P2;Temp;Humidity;BMP_temperature;BMP_pressure;BME280_temperature;BME280_humidity;BME280_pressure;Samples;Min_cycle;Max_cycle;Signal;HPM_P1;HPM_P2
2023/07/18 00:03:24;;;;;;;6.18;2.95;;;;;;;17.06;74.38;100356.72;12241678;19;20022;-82
2023/07/18 00:07:26;;;;;;;6.07;2.50;;;;;;;17.03;73.81;100357.28;12188992;19;20357;-81
2023/07/18 00:11:28;;;;;;;7.93;3.58;;;;;;;16.95;75.01;100344.75;12218423;19;20267;-80
2023/07/18 00:15:30;;;;;;;9.00;2.88;;;;;;;16.90;75.09;100352.31;12216246;19;20007;-79
2023/07/18 00:19:33;;;;;;;6.18;2.80;;;;;;;16.82;75.40;100351.72;12192342;19;20142;-79
2023/07/18 00:23:35;;;;;;;6.60;2.80;;;;;;;16.79;75.94;100368.16;12212637;19;20027;-80
2023/07/18 00:27:40;;;;;;;8.55;2.80;;;;;;;16.76;76.58;100363.97;12225960;19;20022;-80
2023/07/18 00:31:42;;;;;;;7.97;2.90;;;;;;;16.74;76.76;100355.03;12200781;19;20010;-81
2023/07/18 00:35:44;;;;;;;5.90;2.38;;;;;;;16.72;76.64;100362.84;12211421;19;20023;-80
2023/07/18 00:39:46;;;;;;;7.83;2.30;;;;;;;16.71;76.20;100357.53;12228485;19;20006;-80
2023/07/18 00:43:47;;;;;;;6.15;3.15;;;;;;;16.67;76.99;100354.47;12201245;19;20031;-80
2023/07/18 00:47:51;;;;;;;5.13;2.40;;;;;;;16.59;77.52;100364.19;12227852;19;20032;-80
2023/07/18 00:51:53;;;;;;;5.63;2.72;;;;;;;16.51;78.34;100353.63;12227267;19;20014;-81
2023/07/18 00:55:57;;;;;;;8.00;2.38;;;;;;;16.46;79.10;100356.41;12202686;19;20007;-81
2023/07/18 01:00:01;;;;;;;5.30;2.38;;;;;;;16.41;79.10;100357.22;12228611;19;20010;-79
2023/07/18 01:04:03;;;;;;;5.55;2.40;;;;;;;16.38;80.46;100349.41;12225305;19;20030;-81
2023/07/18 01:08:06;;;;;;;5.45;2.47;;;;;;;16.36;80.43;100353.63;12204264;19;20007;-81
2023/07/18 01:12:08;;;;;;;5.35;2.45;;;;;;;16.33;80.16;100352.22;12226054;19;20029;-81
2023/07/18 01:16:10;;;;;;;5.82;2.67;;;;;;;16.33;80.52;100348.56;12226381;19;20014;-80
2023/07/18 01:20:19;;;;;;;6.97;2.42;;;;;;;16.32;80.91;100344.97;12205400;19;20712;-80
2023/07/18 01:24:21;;;;;;;4.50;2.45;;;;;;;16.29;81.93;100348.28;12222142;19;20033;-80
2023/07/18 01:28:23;;;;;;;5.15;2.35;;;;;;;16.27;80.95;100349.69;12227380;19;20010;-81
2023/07/18 01:32:24;;;;;;;7.00;2.03;;;;;;;16.24;81.31;100339.97;12204141;19;20025;-81
2023/07/18 01:36:28;;;;;;;5.07;2.22;;;;;;;16.19;81.55;100342.72;12230621;19;20018;-78
2023/07/18 01:40:30;;;;;;;8.60;3.00;;;;;;;16.16;81.55;100334.94;12210889;19;20018;-78
2023/07/18 01:44:33;;;;;;;6.88;2.53;;;;;;;16.12;81.82;100337.44;12233262;19;20006;-78
2023/07/18 01:48:36;;;;;;;7.85;2.30;;;;;;;16.11;82.55;100337.69;12234353;19;20038;-79
2023/07/18 01:52:41;;;;;;;5.22;2.60;;;;;;;16.08;82.78;100329.91;12196360;19;20006;-78
2023/07/18 01:56:42;;;;;;;7.97;3.40;;;;;;;16.06;82.59;100326.53;12217914;19;20090;-77
2023/07/18 02:00:44;;;;;;;6.63;2.65;;;;;;;16.01;82.99;100326.56;12217603;19;20013;-80
2023/07/18 02:04:46;;;;;;;5.55;2.70;;;;;;;15.97;83.02;100328.19;12196834;19;20004;-79
2023/07/18 02:08:48;;;;;;;7.55;3.22;;;;;;;15.93;83.42;100320.41;12215168;19;20490;-78
2023/07/18 02:12:54;;;;;;;3.28;2.03;;;;;;;15.93;84.02;100322.34;12215623;19;20020;-78
2023/07/18 02:16:57;;;;;;;6.40;2.30;;;;;;;15.88;84.78;100314.84;12195114;19;20021;-79
2023/07/18 02:20:59;;;;;;;;;;;;;;;15.85;84.08;100304.25;12212797;19;20383;-80
2023/07/18 02:25:03;;;;;;;7.22;2.60;;;;;;;15.84;83.82;100313.69;12214362;19;19951;-80
2023/07/18 02:29:05;;;;;;;4.40;2.60;;;;;;;15.80;84.69;100323.69;12191978;19;20014;-80
2023/07/18 02:33:08;;;;;;;3.75;1.88;;;;;;;15.79;85.11;100308.13;12211463;19;20014;-80
2023/07/18 02:37:12;;;;;;;5.47;2.85;;;;;;;15.75;85.46;100309.78;12214904;19;20045;-80
2023/07/18 02:41:14;;;;;;;5.97;2.45;;;;;;;15.74;85.62;100313.69;12192109;19;20018;-79
2023/07/18 02:45:16;;;;;;;6.95;2.75;;;;;;;15.72;86.14;100310.31;12210011;19;20385;-79
2023/07/18 02:49:18;;;;;;;5.05;2.45;;;;;;;15.69;86.16;100314.47;12212316;19;20046;-79
2023/07/18 02:53:20;;;;;;;7.22;2.58;;;;;;;15.65;86.77;100318.88;12190334;19;20018;-79
2023/07/18 02:57:22;;;;;;;7.72;2.55;;;;;;;15.62;86.92;100315.81;12216597;19;20409;-78
2023/07/18 03:01:24;;;;;;;5.78;2.88;;;;;;;15.60;87.47;100313.31;12216478;19;20475;-80
2023/07/18 03:05:27;;;;;;;6.47;2.42;;;;;;;15.57;86.84;100318.56;12191185;19;20066;-79
2023/07/18 03:09:32;;;;;;;5.38;2.55;;;;;;;15.55;87.33;100315.22;12212922;19;20018;-79
2023/07/18 03:13:36;;;;;;;5.57;2.20;;;;;;;15.53;87.60;100309.09;12186724;19;20371;-79
2023/07/18 03:17:38;;;;;;;3.63;1.83;;;;;;;15.50;87.33;100318.81;12212823;19;20046;-80
2023/07/18 03:21:40;;;;;;;7.90;3.20;;;;;;;15.48;87.55;100305.19;12208152;19;20066;-80
2023/07/18 03:25:42;;;;;;;6.25;2.28;;;;;;;15.47;87.20;100309.09;12188633;19;20082;-80
2023/07/18 03:29:43;;;;;;;5.57;2.42;;;;;;;15.46;87.40;100301.84;12254196;19;20015;-77
2023/07/18 03:33:45;;;;;;;5.88;2.08;;;;;;;15.45;87.55;100304.91;12227352;19;20023;-79
2023/07/18 03:37:47;;;;;;;5.28;2.28;;;;;;;15.43;87.74;100307.94;12192968;19;20106;-78
2023/07/18 03:41:49;;;;;;;4.05;1.95;;;;;;;15.43;87.82;100307.09;12211916;19;20098;-78
2023/07/18 03:45:51;;;;;;;4.47;2.22;;;;;;;15.42;87.60;100311.81;12209315;19;20554;-80
2023/07/18 03:49:52;;;;;;;4.13;1.90;;;;;;;15.43;87.48;100316.25;12190107;19;20025;-80
2023/07/18 03:53:54;;;;;;;5.20;2.35;;;;;;;15.44;87.57;100315.19;12210518;19;20082;-79
2023/07/18 03:57:56;;;;;;;6.30;2.00;;;;;;;15.44;87.84;100320.72;12212626;19;20031;-81
2023/07/18 04:01:58;;;;;;;5.97;2.67;;;;;;;15.42;88.08;100317.38;12187170;19;20031;-80
2023/07/18 04:06:00;;;;;;;5.63;2.30;;;;;;;15.42;87.90;100322.94;12209383;19;20031;-79
2023/07/18 04:10:02;;;;;;;6.38;3.30;;;;;;;15.41;88.27;100315.72;12212033;19;20619;-79
2023/07/18 04:14:04;;;;;;;4.35;2.15;;;;;;;15.40;88.96;100314.03;12196423;19;20040;-80
2023/07/18 04:18:06;;;;;;;3.20;1.70;;;;;;;15.42;89.28;100317.38;12218661;19;20077;-79
2023/07/18 04:22:08;;;;;;;4.72;1.98;;;;;;;15.42;88.98;100311.00;12222605;19;20032;-80
2023/07/18 04:26:12;;;;;;;4.35;2.30;;;;;;;15.40;89.23;100311.25;12196971;19;20006;-80
2023/07/18 04:30:14;;;;;;;5.78;2.50;;;;;;;15.38;89.35;100307.94;12221776;19;20023;-79
2023/07/18 04:34:16;;;;;;;4.57;2.28;;;;;;;15.35;89.47;100297.34;12218629;19;20050;-79
2023/07/18 04:38:17;;;;;;;6.18;2.22;;;;;;;15.31;89.85;100304.53;12204307;19;20066;-80
2023/07/18 04:42:19;;;;;;;4.60;2.15;;;;;;;15.30;90.45;100297.31;12222406;19;20002;-80
2023/07/18 04:46:21;;;;;;;4.57;2.20;;;;;;;15.33;90.99;100307.88;12219718;19;20023;-80
2023/07/18 04:50:23;;;;;;;5.88;2.10;;;;;;;15.34;91.26;100308.72;12197780;19;20482;-79
2023/07/18 04:54:25;;;;;;;4.07;2.10;;;;;;;15.34;91.42;100309.56;12218107;19;20369;-80
2023/07/18 04:58:27;;;;;;;5.75;1.98;;;;;;;15.38;91.53;100301.53;12192245;19;20050;-78
2023/07/18 05:02:29;;;;;;;5.27;2.37;;;;;;;15.40;92.01;100302.09;12218868;19;20031;-80
2023/07/18 05:06:31;;;;;;;5.63;2.63;;;;;;;15.44;92.20;100303.25;12215114;19;20350;-80
2023/07/18 05:10:33;;;;;;;4.25;2.50;;;;;;;15.49;92.51;100306.84;12200329;19;20042;-81
2023/07/18 05:14:35;;;;;;;5.43;1.90;;;;;;;15.55;92.83;100301.31;12215563;19;20014;-80
2023/07/18 05:18:37;;;;;;;8.52;2.85;;;;;;;15.60;92.81;100301.34;12215651;19;20006;-80
2023/07/18 05:22:40;;;;;;;5.13;2.05;;;;;;;15.66;92.88;100303.03;12192722;19;20018;-81
2023/07/18 05:26:42;;;;;;;7.63;2.88;;;;;;;15.73;92.64;100295.31;12205779;19;20002;-81
2023/07/18 05:30:45;;;;;;;5.57;2.25;;;;;;;15.82;92.29;100293.69;12211532;19;20051;-79
2023/07/18 05:34:47;;;;;;;6.22;2.60;;;;;;;15.90;91.50;100290.38;12194331;19;20095;-80
2023/07/18 05:38:48;;;;;;;6.88;2.30;;;;;;;16.01;90.79;100294.03;12199423;19;20374;-80
2023/07/18 05:42:50;;;;;;;5.78;2.40;;;;;;;16.14;90.27;100284.31;12218934;19;20422;-79
2023/07/18 05:46:52;;;;;;;7.47;2.08;;;;;;;16.27;90.38;100289.34;12193530;19;20370;-80
2023/07/18 05:50:57;;;;;;;6.40;2.28;;;;;;;16.42;88.41;100288.53;12218660;19;20013;-79
2023/07/18 05:54:59;;;;;;;3.83;2.03;;;;;;;16.57;87.67;100287.72;12221513;19;20086;-81
2023/07/18 05:59:05;;;;;;;5.43;2.25;;;;;;;16.73;86.58;100294.94;12199660;19;20035;-81
2023/07/18 06:03:07;;;;;;;3.63;2.10;;;;;;;16.93;84.28;100287.72;12218828;19;20345;-80
2023/07/18 06:07:10;;;;;;;5.20;1.80;;;;;;;17.16;79.42;100283.47;12216299;19;20524;-80
2023/07/18 06:11:11;;;;;;;4.50;2.00;;;;;;;17.46;79.03;100277.84;12197791;19;20098;-79
2023/07/18 06:15:13;;;;;;;5.10;1.90;;;;;;;17.73;77.17;100271.03;12219398;19;20018;-81
2023/07/18 06:19:16;;;;;;;7.28;2.75;;;;;;;17.97;76.53;100265.63;12219634;19;20018;-80
2023/07/18 06:23:18;;;;;;;6.05;2.17;;;;;;;18.21;73.88;100266.59;12193860;19;20078;-78
2023/07/18 06:27:19;;;;;;;5.15;2.30;;;;;;;18.46;71.19;100264.72;12212000;19;20006;-79
2023/07/18 06:31:22;;;;;;;4.68;1.77;;;;;;;18.71;69.50;100260.91;12217871;19;20074;-80
2023/07/18 06:35:24;;;;;;;3.92;1.90;;;;;;;18.97;67.06;100272.66;12194162;19;20015;-82
2023/07/18 06:39:27;;;;;;;6.18;2.25;;;;;;;19.23;66.05;100266.81;12216244;19;20082;-78
2023/07/18 06:43:28;;;;;;;8.52;2.00;;;;;;;19.45;64.23;100260.69;12191629;19;20907;-79
2023/07/18 06:47:30;;;;;;;5.20;1.98;;;;;;;19.63;61.48;100261.84;12213491;19;20338;-80
2023/07/18 06:51:32;;;;;;;5.78;1.90;;;;;;;19.84;60.87;100252.13;12230239;19;20014;-76
2023/07/18 06:55:34;;;;;;;7.18;2.08;;;;;;;20.04;59.70;100256.56;12230386;19;20006;-81
2023/07/18 06:59:36;;;;;;;4.85;2.38;;;;;;;20.23;57.84;100251.00;12225842;19;20076;-79
2023/07/18 07:03:38;;;;;;;4.72;2.60;;;;;;;20.42;56.38;100257.38;12221991;19;20010;-80
2023/07/18 07:07:40;;;;;;;4.13;1.83;;;;;;;20.63;55.74;100257.06;12196323;19;20011;-79
2023/07/18 07:11:43;;;;;;;3.83;1.97;;;;;;;20.82;55.16;100257.88;12219701;19;20097;-77
2023/07/18 07:15:45;;;;;;;;;;;;;;;21.00;54.63;100249.69;12219669;19;20074;-79
2023/07/18 07:19:46;;;;;;;5.40;2.53;;;;;;;21.16;52.25;100242.66;12194361;19;19929;-78
2023/07/18 07:23:48;;;;;;;4.93;1.77;;;;;;;21.38;51.55;100239.97;12215197;19;20010;-81
2023/07/18 07:27:50;;;;;;;6.43;2.27;;;;;;;21.66;51.07;100225.97;12215808;19;20007;-80
2023/07/18 07:31:52;;;;;;;5.63;2.07;;;;;;;21.90;50.55;100224.88;12193850;19;20014;-79
2023/07/18 07:35:55;;;;;;;11.32;2.33;;;;;;;22.14;50.08;100217.00;12213680;19;20378;-79
2023/07/18 07:39:56;;;;;;;5.57;1.90;;;;;;;22.40;49.37;100230.44;12215801;19;20018;-80
2023/07/18 07:43:58;;;;;;;4.60;1.80;;;;;;;22.63;48.38;100222.84;12222477;19;20006;-79
2023/07/18 07:48:00;;;;;;;5.60;1.73;;;;;;;22.79;47.10;100223.28;12242460;19;20006;-78
2023/07/18 07:52:03;;;;;;;6.70;2.10;;;;;;;22.91;44.88;100218.72;12229971;19;20131;-80
2023/07/18 07:56:05;;;;;;;7.83;2.10;;;;;;;23.08;46.27;100212.38;12200599;19;20002;-80
2023/07/18 08:00:07;;;;;;;5.75;1.77;;;;;;;23.30;46.01;100202.22;12217859;19;20018;-80
2023/07/18 08:04:11;;;;;;;3.55;1.58;;;;;;;23.53;45.52;100200.97;12219364;19;20023;-82
2023/07/18 08:08:13;;;;;;;6.30;1.92;;;;;;;23.73;45.14;100198.69;12195791;19;20014;-79
2023/07/18 08:12:15;;;;;;;3.97;2.10;;;;;;;23.79;44.09;100191.75;12217463;19;20010;-79
2023/07/18 08:16:17;;;;;;;3.72;1.83;;;;;;;23.90;44.55;100186.63;12216926;19;20102;-80
2023/07/18 08:20:19;;;;;;;6.65;2.10;;;;;;;24.09;43.84;100175.84;12195665;19;20011;-80
2023/07/18 08:24:21;;;;;;;4.90;2.43;;;;;;;24.33;43.51;100170.56;12217073;19;20010;-80
2023/07/18 08:28:22;;;;;;;4.43;2.00;;;;;;;24.45;42.11;100174.69;12217305;19;20811;-80
2023/07/18 08:32:24;;;;;;;8.45;2.03;;;;;;;24.63;41.75;100172.66;12197758;19;20006;-81
2023/07/18 08:36:31;;;;;;;4.00;1.88;;;;;;;24.50;41.49;100169.72;12217291;19;20019;-80
2023/07/18 08:40:32;;;;;;;3.97;1.90;;;;;;;24.64;41.58;100171.53;12194806;19;20006;-80
2023/07/18 08:44:35;;;;;;;4.47;2.00;;;;;;;24.95;40.81;100165.59;12213572;19;20486;-79
2023/07/18 08:48:37;;;;;;;;;;;;;;;25.13;40.27;100146.59;12215166;19;20014;-82
2023/07/18 08:52:39;;;;;;;4.20;1.70;;;;;;;25.26;38.51;100139.94;12187919;19;19935;-81
2023/07/18 08:56:43;;;;;;;6.53;2.08;;;;;;;25.43;39.36;100136.19;12210816;19;20006;-82
2023/07/18 09:00:46;;;;;;;4.68;2.08;;;;;;;25.53;38.15;100141.44;12228743;19;20046;-82
2023/07/18 09:04:51;;;;;;;3.80;1.98;;;;;;;25.71;37.98;100128.03;12205376;19;20011;-80
2023/07/18 09:08:57;;;;;;;7.23;1.93;;;;;;;25.72;38.25;100126.03;12224615;19;20007;-83
2023/07/18 09:13:02;;;;;;;5.28;1.90;;;;;;;25.81;37.07;100107.84;12220987;19;20040;-80
2023/07/18 09:17:05;;;;;;;6.75;2.25;;;;;;;25.86;37.08;100085.09;12200053;19;20421;-81
2023/07/18 09:21:11;;;;;;;7.60;2.20;;;;;;;26.00;37.42;100081.13;12225024;19;20011;-80
2023/07/18 09:25:14;;;;;;;3.80;1.52;;;;;;;26.12;36.79;100084.03;12221944;19;20422;-81
2023/07/18 09:29:17;;;;;;;6.13;1.92;;;;;;;26.17;37.20;100069.66;12201117;19;20027;-80
2023/07/18 09:33:24;;;;;;;7.90;2.05;;;;;;;26.50;36.39;100077.28;12223366;19;20006;-80
2023/07/18 09:37:27;;;;;;;5.63;2.45;;;;;;;26.76;35.86;100063.66;12205561;19;20010;-80
2023/07/18 09:41:31;;;;;;;7.88;1.75;;;;;;;26.93;35.30;100061.81;12222418;19;20014;-80
2023/07/18 09:45:34;;;;;;;4.47;2.00;;;;;;;27.10;35.03;100055.03;12220191;19;20078;-79
2023/07/18 09:49:37;;;;;;;5.57;1.90;;;;;;;27.26;34.02;100067.34;12195775;19;20023;-81
2023/07/18 09:53:45;;;;;;;4.72;1.90;;;;;;;27.36;34.42;100064.00;12216208;19;20464;-80
2023/07/18 09:57:49;;;;;;;4.25;1.92;;;;;;;27.14;34.32;100062.47;12223784;19;20146;-83
2023/07/18 10:01:51;;;;;;;4.68;1.80;;;;;;;27.33;34.21;100070.38;12200148;19;20404;-82
2023/07/18 10:05:54;;;;;;;5.07;2.28;;;;;;;27.75;34.23;100074.84;12221297;19;20034;-82
2023/07/18 10:09:57;;;;;;;4.32;2.03;;;;;;;27.92;33.31;100080.25;12221399;19;20002;-81
2023/07/18 10:13:58;;;;;;;5.00;1.88;;;;;;;27.81;32.14;100091.28;12198534;19;20014;-80
2023/07/18 10:18:16;;;;;;;4.60;1.67;;;;;;;28.12;32.84;100124.56;12216023;19;20014;-81
2023/07/18 10:22:30;;;;;;;6.05;2.08;;;;;;;28.43;32.11;100119.34;12223319;19;20014;-81
2023/07/18 10:26:33;;;;;;;5.78;1.65;;;;;;;28.58;31.96;100108.03;12195530;19;20530;-81
2023/07/18 10:30:42;;;;;;;58.10;3.95;;;;;;;29.11;31.72;100085.09;12221827;19;20058;-82
2023/07/18 10:34:52;;;;;;;8.57;1.83;;;;;;;29.04;31.12;100065.88;12197578;19;20066;-80
2023/07/18 10:38:56;;;;;;;4.72;1.65;;;;;;;29.20;31.12;100030.97;12218939;19;20782;-80
2023/07/18 10:42:59;;;;;;;4.55;1.98;;;;;;;29.11;31.37;99999.97;12217352;19;20414;-81
2023/07/18 10:47:11;;;;;;;6.90;1.90;;;;;;;28.83;32.21;100017.13;12200671;19;20078;-82
2023/07/18 10:51:14;;;;;;;6.57;2.28;;;;;;;28.88;32.23;100008.31;12216044;19;20080;-82
2023/07/18 10:55:16;;;;;;;4.82;2.00;;;;;;;29.05;31.08;99985.25;12216374;19;20132;-81
2023/07/18 10:59:20;;;;;;;4.68;1.80;;;;;;;29.12;31.13;99983.75;12198365;19;20102;-81
2023/07/18 11:03:34;;;;;;;8.13;1.90;;;;;;;29.31;30.62;99969.59;12216394;19;19998;-81
2023/07/18 11:07:48;;;;;;;4.75;2.00;;;;;;;28.96;30.15;99970.41;12195119;19;20011;-78
2023/07/18 11:11:50;;;;;;;9.02;2.90;;;;;;;28.92;30.64;99978.03;12218510;19;20602;-82
2023/07/18 11:15:55;;;;;;;5.97;2.20;;;;;;;29.02;30.45;99973.81;12214016;19;20024;-80
2023/07/18 11:19:57;;;;;;;5.03;1.73;;;;;;;29.04;30.38;99968.59;12194260;19;20046;-80
2023/07/18 11:23:59;;;;;;;;;;;;;;;29.01;30.88;99981.47;12216974;19;20025;-80
2023/07/18 11:28:03;;;;;;;3.58;1.67;;;;;;;29.51;30.22;99971.25;12208991;19;20584;-81
2023/07/18 11:32:05;;;;;;;6.43;2.88;;;;;;;30.11;30.14;99952.94;12189692;19;20020;-79
2023/07/18 11:36:08;;;;;;;5.38;2.10;;;;;;;30.41;29.06;99944.56;12210953;19;20031;-79
2023/07/18 11:40:11;;;;;;;5.18;2.20;;;;;;;30.59;28.44;99927.78;12211951;19;20042;-78
2023/07/18 11:44:23;;;;;;;7.03;2.10;;;;;;;30.47;28.07;99917.44;12187060;19;20007;-80
2023/07/18 11:48:27;;;;;;;5.10;2.00;;;;;;;30.70;28.25;99920.25;12210843;19;20023;-80
2023/07/18 11:52:29;;;;;;;6.13;1.80;;;;;;;30.99;28.17;99932.84;12187275;19;20358;-79
2023/07/18 11:56:32;;;;;;;3.15;1.80;;;;;;;31.42;27.48;99929.78;12208450;19;20010;-79
2023/07/18 12:00:37;;;;;;;6.35;3.20;;;;;;;31.36;27.29;99917.94;12210373;19;20011;-81
2023/07/18 12:04:39;;;;;;;5.20;2.20;;;;;;;31.48;27.52;99914.00;12189698;19;20014;-79
2023/07/18 12:08:41;;;;;;;6.35;2.15;;;;;;;31.33;27.98;99910.94;12210828;19;20010;-80
2023/07/18 12:12:43;;;;;;;3.97;2.05;;;;;;;31.39;27.86;99899.25;12207915;19;20100;-78
2023/07/18 12:16:45;;;;;;;2.95;2.08;;;;;;;31.43;27.37;99894.41;12187167;19;20382;-81
2023/07/18 12:20:47;;;;;;;;;;;;;;;31.53;27.42;99893.69;12209173;19;20014;-80
2023/07/18 12:24:48;;;;;;;5.22;2.13;;;;;;;31.97;27.29;99885.22;12210460;19;19914;-81
2023/07/18 12:28:51;;;;;;;4.60;2.22;;;;;;;32.79;26.31;99875.69;12188263;19;20022;-79
2023/07/18 12:32:54;;;;;;;15.55;8.82;;;;;;;33.47;25.82;99868.22;12215036;19;20007;-80
2023/07/18 12:36:56;;;;;;;5.90;2.70;;;;;;;34.00;25.26;99852.38;12223612;19;20006;-80
2023/07/18 12:40:57;;;;;;;7.18;2.63;;;;;;;34.65;23.86;99841.75;12201835;19;20014;-82
2023/07/18 12:44:59;;;;;;;7.10;3.15;;;;;;;35.60;22.71;99813.09;12221828;19;20019;-82
2023/07/18 12:49:02;;;;;;;3.63;2.30;;;;;;;36.14;22.08;99802.03;12218968;19;20007;-82
2023/07/18 12:53:06;;;;;;;4.82;2.40;;;;;;;36.57;21.71;99795.06;12196908;19;20018;-81
2023/07/18 12:57:09;;;;;;;7.70;2.60;;;;;;;37.52;21.75;99774.13;12219951;19;20010;-81
2023/07/18 13:01:12;;;;;;;4.30;2.72;;;;;;;38.77;20.14;99780.50;12220049;19;19999;-81
2023/07/18 13:05:14;;;;;;;5.03;2.40;;;;;;;39.32;19.79;99778.91;12197621;19;20007;-80
2023/07/18 13:09:16;;;;;;;5.32;2.78;;;;;;;39.51;19.05;99768.59;12217968;19;20003;-80
2023/07/18 13:13:18;;;;;;;4.38;2.78;;;;;;;39.97;18.94;99763.72;12216291;19;20017;-80
2023/07/18 13:17:20;;;;;;;3.22;1.88;;;;;;;40.28;18.22;99758.38;12197711;19;20054;-79
2023/07/18 13:21:23;;;;;;;4.18;2.00;;;;;;;40.07;18.61;99747.38;12215853;19;20028;-81
2023/07/18 13:25:25;;;;;;;4.53;2.50;;;;;;;38.23;19.97;99744.13;12213807;19;20472;-82
2023/07/18 13:29:27;;;;;;;4.18;2.50;;;;;;;38.91;19.47;99737.03;12219091;19;20006;-80
2023/07/18 13:33:30;;;;;;;4.45;2.38;;;;;;;39.62;18.28;99736.59;12219398;19;20017;-80
2023/07/18 13:37:31;;;;;;;6.63;2.28;;;;;;;40.26;17.64;99726.28;12195929;19;20027;-81
2023/07/18 13:41:33;;;;;;;6.43;2.83;;;;;;;41.09;17.24;99716.00;12216517;19;20011;-82
2023/07/18 13:45:35;;;;;;;5.35;2.25;;;;;;;41.70;16.74;99708.22;12214575;19;20011;-81
2023/07/18 13:49:37;;;;;;;5.20;2.50;;;;;;;42.01;16.56;99707.59;12195373;19;20011;-80
2023/07/18 13:53:42;;;;;;;4.45;2.55;;;;;;;42.23;15.97;99699.72;12214197;19;20023;-82
2023/07/18 13:57:44;;;;;;;3.72;2.75;;;;;;;42.51;15.90;99700.78;12216402;19;20104;-79
2023/07/18 14:01:45;;;;;;;4.18;2.63;;;;;;;42.81;15.32;99695.53;12195092;19;20038;-82
2023/07/18 14:05:47;;;;;;;4.53;2.15;;;;;;;43.16;15.54;99699.06;12217857;19;20018;-82
2023/07/18 14:09:49;;;;;;;7.07;3.05;;;;;;;43.60;15.14;99698.13;12217053;19;20017;-82
2023/07/18 14:13:51;;;;;;;4.57;2.28;;;;;;;43.31;15.14;99696.38;12194797;19;20025;-81
2023/07/18 14:17:53;;;;;;;3.58;2.28;;;;;;;43.39;14.96;99705.59;12215174;19;20027;-82
2023/07/18 14:21:55;;;;;;;2.85;2.30;;;;;;;43.23;15.31;99698.00;12217232;19;20047;-80
2023/07/18 14:25:57;;;;;;;4.43;2.35;;;;;;;42.71;15.44;99693.81;12192183;19;20018;-78
2023/07/18 14:29:59;;;;;;;8.60;2.55;;;;;;;42.83;15.61;99690.03;12209389;19;20121;-79
2023/07/18 14:34:02;;;;;;;5.65;2.72;;;;;;;42.96;15.35;99681.25;12189743;19;20027;-81
2023/07/18 14:38:08;;;;;;;4.55;2.15;;;;;;;42.82;15.64;99690.53;12195934;19;20006;-80
2023/07/18 14:42:10;;;;;;;9.27;2.53;;;;;;;43.39;15.26;99689.00;12211457;19;20852;-80
2023/07/18 14:46:12;;;;;;;5.65;2.50;;;;;;;44.55;14.52;99671.88;12216837;19;20010;-82
2023/07/18 14:50:15;;;;;;;4.70;2.47;;;;;;;43.80;14.69;99671.56;12194899;19;20010;-82
2023/07/18 14:54:17;;;;;;;3.47;2.15;;;;;;;41.19;16.43;99667.78;12215452;19;20011;-81
2023/07/18 14:58:20;;;;;;;5.07;2.55;;;;;;;38.89;18.15;99667.53;12218464;19;20491;-79
2023/07/18 15:02:22;;;;;;;5.93;2.40;;;;;;;37.41;19.56;99651.50;12195290;19;20431;-82
2023/07/18 15:06:24;;;;;;;4.80;2.35;;;;;;;36.69;19.88;99651.78;12212830;19;20528;-81
2023/07/18 15:10:25;;;;;;;5.80;4.05;;;;;;;36.42;20.29;99645.19;12213766;19;20536;-81
2023/07/18 15:14:27;;;;;;;6.40;2.78;;;;;;;36.09;20.74;99641.09;12214214;19;20013;-79
2023/07/18 15:18:29;;;;;;;5.68;2.47;;;;;;;36.98;19.83;99625.53;12216276;19;20007;-82
2023/07/18 15:22:31;;;;;;;6.65;2.90;;;;;;;39.03;18.34;99616.56;12194720;19;20029;-79
2023/07/18 15:26:33;;;;;;;4.93;2.60;;;;;;;39.75;17.72;99598.28;12219556;19;20080;-80
2023/07/18 15:30:35;;;;;;;5.15;2.60;;;;;;;38.11;19.25;99603.81;12220153;19;20010;-80
2023/07/18 15:34:37;;;;;;;4.57;2.63;;;;;;;36.19;20.43;99597.09;12196638;19;20010;-80
2023/07/18 15:38:42;;;;;;;5.93;3.13;;;;;;;34.58;22.16;99604.28;12264167;19;20018;-78
2023/07/18 15:42:48;;;;;;;5.35;2.40;;;;;;;33.59;22.79;99595.66;12264072;19;20021;-78
2023/07/18 15:46:50;;;;;;;6.50;2.55;;;;;;;32.78;23.47;99574.44;12245547;19;20002;-77
2023/07/18 15:50:52;;;;;;;4.78;2.60;;;;;;;32.37;24.17;99572.72;12239143;19;20010;-80
2023/07/18 15:54:54;;;;;;;5.30;2.58;;;;;;;32.07;24.55;99563.69;12224745;19;20015;-79
2023/07/18 15:58:56;;;;;;;;;;;;;;;31.70;24.87;99551.25;12199934;19;20682;-80
2023/07/18 16:02:58;;;;;;;6.55;2.70;;;;;;;31.02;25.83;99549.97;12221765;19;19922;-79
2023/07/18 16:07:00;;;;;;;9.27;2.60;;;;;;;30.59;26.78;99541.88;12222980;19;20017;-79
2023/07/18 16:11:02;;;;;;;6.50;2.33;;;;;;;30.36;26.81;99527.00;12198094;19;20015;-80
2023/07/18 16:15:04;;;;;;;6.03;2.70;;;;;;;30.39;26.60;99532.72;12220528;19;20002;-79
2023/07/18 16:19:06;;;;;;;10.55;2.80;;;;;;;30.16;26.81;99526.34;12215153;19;20018;-79
2023/07/18 16:23:09;;;;;;;;;;;;;;;29.83;27.60;99530.84;12195550;19;20050;-79
2023/07/18 16:27:11;;;;;;;6.57;2.08;;;;;;;29.74;28.08;99531.13;12216498;19;20484;-79
2023/07/18 16:31:13;;;;;;;7.35;2.30;;;;;;;29.68;27.63;99531.88;12216035;19;20524;-79
2023/07/18 16:35:15;;;;;;;;;;;;;;;29.49;28.36;99525.09;12195081;19;20121;-80
2023/07/18 16:39:17;;;;;;;9.60;2.03;;;;;;;29.20;28.67;99515.38;12217333;19;19978;-79
2023/07/18 16:43:20;;;;;;;5.32;2.17;;;;;;;29.07;28.83;99511.13;12212810;19;20010;-79
2023/07/18 16:47:21;;;;;;;;;;;;;;;28.88;28.55;99503.50;12190969;19;20072;-79
2023/07/18 16:51:23;;;;;;;3.92;2.10;;;;;;;28.86;28.98;99511.56;12216871;19;19922;-79
2023/07/18 16:55:26;;;;;;;5.05;2.03;;;;;;;28.89;29.42;99504.34;12210430;19;20013;-79
2023/07/18 16:59:28;;;;;;;4.97;2.10;;;;;;;28.93;29.37;99511.69;12216753;19;20023;-79
2023/07/18 17:03:29;;;;;;;5.63;2.25;;;;;;;28.85;29.09;99521.25;12213655;19;20090;-80
2023/07/18 17:07:31;;;;;;;6.70;2.08;;;;;;;28.74;29.38;99514.63;12195445;19;20020;-80
2023/07/18 17:11:33;;;;;;;4.75;2.20;;;;;;;28.57;29.69;99516.75;12212123;19;20011;-80
2023/07/18 17:15:35;;;;;;;7.35;2.33;;;;;;;28.52;29.55;99517.06;12214863;19;20010;-80
2023/07/18 17:19:38;;;;;;;3.63;1.73;;;;;;;28.54;29.87;99511.84;12195787;19;20493;-79
2023/07/18 17:23:59;;;;;;;;;;;;;;;28.44;30.23;99501.16;12224788;19;20011;-79
2023/07/18 17:28:01;;;;;;;4.90;2.50;;;;;;;28.44;30.10;99498.31;12222259;19;19924;-79
2023/07/18 17:32:03;;;;;;;5.22;2.00;;;;;;;28.57;30.04;99496.91;12201843;19;20015;-79
2023/07/18 17:36:06;;;;;;;;;;;;;;;28.45;29.96;99476.47;12219773;19;20015;-78
2023/07/18 17:40:11;;;;;;;4.15;2.33;;;;;;;28.38;30.30;99472.28;12219245;19;19923;-78
2023/07/18 17:44:13;;;;;;;4.32;2.55;;;;;;;28.36;29.86;99471.81;12192215;19;20070;-78
2023/07/18 17:48:16;;;;;;;8.25;2.17;;;;;;;28.43;30.32;99476.81;12215473;19;20026;-78
2023/07/18 17:52:17;;;;;;;5.15;2.40;;;;;;;28.32;30.39;99487.16;12217587;19;20021;-79
2023/07/18 17:56:22;;;;;;;6.68;2.22;;;;;;;28.25;30.36;99484.97;12196909;19;20010;-79
2023/07/18 18:00:24;;;;;;;8.40;2.05;;;;;;;28.15;30.68;99477.94;12216363;19;20024;-79
2023/07/18 18:04:25;;;;;;;6.53;2.30;;;;;;;28.03;30.96;99483.78;12213080;19;20627;-79
2023/07/18 18:08:27;;;;;;;6.03;2.15;;;;;;;28.00;30.78;99481.69;12217267;19;20006;-78
2023/07/18 18:12:29;;;;;;;5.57;2.50;;;;;;;27.93;30.88;99475.88;12218509;19;20940;-79
2023/07/18 18:16:31;;;;;;;4.45;1.90;;;;;;;27.79;30.92;99476.44;12199189;19;20020;-80
2023/07/18 18:20:33;;;;;;;5.28;1.90;;;;;;;27.69;31.09;99472.16;12222887;19;20078;-80
2023/07/18 18:24:36;;;;;;;;;;;;;;;27.61;30.87;99480.88;12214060;19;20015;-80
2023/07/18 18:28:38;;;;;;;4.53;1.77;;;;;;;27.66;31.12;99469.25;12200132;19;19955;-80
2023/07/18 18:32:39;;;;;;;4.97;2.22;;;;;;;27.62;31.00;99471.19;12223455;19;20010;-80
2023/07/18 18:36:41;;;;;;;4.75;2.28;;;;;;;27.52;31.48;99472.63;12225008;19;20010;-79
2023/07/18 18:40:43;;;;;;;6.38;1.85;;;;;;;27.47;31.65;99487.06;12207905;19;20625;-79
2023/07/18 18:44:45;;;;;;;6.65;2.17;;;;;;;27.34;31.40;99491.22;12221569;19;20014;-79
2023/07/18 18:48:47;;;;;;;5.20;2.20;;;;;;;27.25;31.71;99489.41;12222032;19;20377;-79